sensor_id;sensor_type;location;lat;lon;timestamp;temperature;humidity
25512;DHT22;13414;44.534;18.700;2023-08-21T00:02:08;21.60;99.90
25512;DHT22;13414;44.534;18.700;2023-08-21T00:04:35;21.50;99.90
25512;DHT22;13414;44.534;18.700;2023-08-21T00:07:02;21.50;99.90
25512;DHT22;13414;44.534;18.700;2023-08-21T00:09:30;21.50;99.90
25512;DHT22;13414;44.534;18.700;2023-08-21T00:11:59;21.50;99.90
25512;DHT22;13414;44.534;18.700;2023-08-21T00:14:26;21.50;99.90
25512;DHT22;13414;44.534;18.700;2023-08-21T00:16:54;21.40;99.90
25512;DHT22;13414;44.534;18.700;2023-08-21T00:19:21;21.30;99.90
25512;DHT22;13414;44.534;18.700;2023-08-21T00:21:49;21.20;99.90
25512;DHT22;13414;44.534;18.700;2023-08-21T00:24:16;21.20;99.90
25512;DHT22;13414;44.534;18.700;2023-08-21T00:26:43;21.10;99.90
25512;DHT22;13414;44.534;18.700;2023-08-21T00:29:14;21.10;99.90
25512;DHT22;13414;44.534;18.700;2023-08-21T00:31:41;21.10;99.90
25512;DHT22;13414;44.534;18.700;2023-08-21T00:34:08;21.10;99.90
25512;DHT22;13414;44.534;18.700;2023-08-21T00:36:36;21.00;99.90
25512;DHT22;13414;44.534;18.700;2023-08-21T00:39:05;21.10;99.90
25512;DHT22;13414;44.534;18.700;2023-08-21T00:41:32;21.10;99.90
25512;DHT22;13414;44.534;18.700;2023-08-21T00:44:00;21.10;99.90
25512;DHT22;13414;44.534;18.700;2023-08-21T00:46:29;21.20;99.90
25512;DHT22;13414;44.534;18.700;2023-08-21T00:48:57;21.10;99.90
25512;DHT22;13414;44.534;18.700;2023-08-21T00:51:26;21.20;99.90
25512;DHT22;13414;44.534;18.700;2023-08-21T00:53:55;21.10;99.90
25512;DHT22;13414;44.534;18.700;2023-08-21T00:56:23;21.00;99.90
25512;DHT22;13414;44.534;18.700;2023-08-21T00:58:51;21.00;99.90
25512;DHT22;13414;44.534;18.700;2023-08-21T01:01:24;21.00;99.90
25512;DHT22;13414;44.534;18.700;2023-08-21T01:03:54;21.00;99.90
25512;DHT22;13414;44.534;18.700;2023-08-21T01:06:23;21.00;99.90
25512;DHT22;13414;44.534;18.700;2023-08-21T01:08:58;20.90;99.90
25512;DHT22;13414;44.534;18.700;2023-08-21T01:11:35;20.90;99.90
25512;DHT22;13414;44.534;18.700;2023-08-21T01:14:09;20.80;99.90
25512;DHT22;13414;44.534;18.700;2023-08-21T01:16:44;20.70;99.90
25512;DHT22;13414;44.534;18.700;2023-08-21T01:19:25;20.70;99.90
25512;DHT22;13414;44.534;18.700;2023-08-21T01:21:53;20.60;99.90
25512;DHT22;13414;44.534;18.700;2023-08-21T01:24:22;20.60;99.90
25512;DHT22;13414;44.534;18.700;2023-08-21T01:26:50;20.50;99.90
25512;DHT22;13414;44.534;18.700;2023-08-21T01:29:17;20.50;99.90
25512;DHT22;13414;44.534;18.700;2023-08-21T01:31:52;20.50;99.90
25512;DHT22;13414;44.534;18.700;2023-08-21T01:34:23;20.50;99.90
25512;DHT22;13414;44.534;18.700;2023-08-21T01:36:52;20.50;99.90
25512;DHT22;13414;44.534;18.700;2023-08-21T01:39:19;20.50;99.90
25512;DHT22;13414;44.534;18.700;2023-08-21T01:41:49;20.60;99.90
25512;DHT22;13414;44.534;18.700;2023-08-21T01:44:16;20.60;99.90
25512;DHT22;13414;44.534;18.700;2023-08-21T01:46:43;20.70;99.90
25512;DHT22;13414;44.534;18.700;2023-08-21T01:49:11;20.60;99.90
25512;DHT22;13414;44.534;18.700;2023-08-21T01:51:39;20.40;99.90
25512;DHT22;13414;44.534;18.700;2023-08-21T01:54:06;20.40;99.90
25512;DHT22;13414;44.534;18.700;2023-08-21T01:56:33;20.40;99.90
25512;DHT22;13414;44.534;18.700;2023-08-21T01:59:03;20.60;99.90
25512;DHT22;13414;44.534;18.700;2023-08-21T02:01:32;20.60;99.90
25512;DHT22;13414;44.534;18.700;2023-08-21T02:04:00;20.50;99.90
25512;DHT22;13414;44.534;18.700;2023-08-21T02:06:27;20.40;99.90
25512;DHT22;13414;44.534;18.700;2023-08-21T02:08:54;20.40;99.90
25512;DHT22;13414;44.534;18.700;2023-08-21T02:11:22;20.40;99.90
25512;DHT22;13414;44.534;18.700;2023-08-21T02:13:51;20.40;99.90
25512;DHT22;13414;44.534;18.700;2023-08-21T02:16:20;20.40;99.90
25512;DHT22;13414;44.534;18.700;2023-08-21T02:18:48;20.40;99.90
25512;DHT22;13414;44.534;18.700;2023-08-21T02:21:15;20.30;99.90
25512;DHT22;13414;44.534;18.700;2023-08-21T02:23:43;20.40;99.90
25512;DHT22;13414;44.534;18.700;2023-08-21T02:26:10;20.30;99.90
25512;DHT22;13414;44.534;18.700;2023-08-21T02:28:39;20.40;99.90
25512;DHT22;13414;44.534;18.700;2023-08-21T02:31:09;20.40;99.90
25512;DHT22;13414;44.534;18.700;2023-08-21T02:33:38;20.40;99.90
25512;DHT22;13414;44.534;18.700;2023-08-21T02:36:06;20.40;99.90
25512;DHT22;13414;44.534;18.700;2023-08-21T02:38:35;20.40;99.90
25512;DHT22;13414;44.534;18.700;2023-08-21T02:41:03;20.40;99.90
25512;DHT22;13414;44.534;18.700;2023-08-21T02:43:30;20.40;99.90
25512;DHT22;13414;44.534;18.700;2023-08-21T02:45:58;20.50;99.90
25512;DHT22;13414;44.534;18.700;2023-08-21T02:48:25;20.50;99.90
25512;DHT22;13414;44.534;18.700;2023-08-21T02:50:55;20.50;99.90
25512;DHT22;13414;44.534;18.700;2023-08-21T02:53:22;20.30;99.90
25512;DHT22;13414;44.534;18.700;2023-08-21T02:55:49;20.20;99.90
25512;DHT22;13414;44.534;18.700;2023-08-21T02:58:17;20.10;99.90
25512;DHT22;13414;44.534;18.700;2023-08-21T03:00:44;20.00;99.90
25512;DHT22;13414;44.534;18.700;2023-08-21T03:03:11;20.00;99.90
25512;DHT22;13414;44.534;18.700;2023-08-21T03:05:39;20.00;99.90
25512;DHT22;13414;44.534;18.700;2023-08-21T03:08:07;20.00;99.90
25512;DHT22;13414;44.534;18.700;2023-08-21T03:10:36;20.00;99.90
25512;DHT22;13414;44.534;18.700;2023-08-21T03:13:03;20.00;99.90
25512;DHT22;13414;44.534;18.700;2023-08-21T03:15:30;20.00;99.90
25512;DHT22;13414;44.534;18.700;2023-08-21T03:17:58;20.00;99.90
25512;DHT22;13414;44.534;18.700;2023-08-21T03:20:26;20.00;99.90
25512;DHT22;13414;44.534;18.700;2023-08-21T03:22:53;19.90;99.90
25512;DHT22;13414;44.534;18.700;2023-08-21T03:25:24;19.90;99.90
25512;DHT22;13414;44.534;18.700;2023-08-21T03:27:52;19.80;99.90
25512;DHT22;13414;44.534;18.700;2023-08-21T03:30:19;19.80;99.90
25512;DHT22;13414;44.534;18.700;2023-08-21T03:32:47;19.90;99.90
25512;DHT22;13414;44.534;18.700;2023-08-21T03:35:14;19.80;99.90
25512;DHT22;13414;44.534;18.700;2023-08-21T03:37:42;19.80;99.90
25512;DHT22;13414;44.534;18.700;2023-08-21T03:40:13;19.80;99.90
25512;DHT22;13414;44.534;18.700;2023-08-21T03:42:43;19.80;99.90
25512;DHT22;13414;44.534;18.700;2023-08-21T03:45:11;19.80;99.90
25512;DHT22;13414;44.534;18.700;2023-08-21T03:47:39;19.90;99.90
25512;DHT22;13414;44.534;18.700;2023-08-21T03:50:14;19.80;99.90
25512;DHT22;13414;44.534;18.700;2023-08-21T03:52:41;19.80;99.90
25512;DHT22;13414;44.534;18.700;2023-08-21T03:55:08;19.80;99.90
25512;DHT22;13414;44.534;18.700;2023-08-21T03:57:36;19.90;99.90
25512;DHT22;13414;44.534;18.700;2023-08-21T04:00:07;19.80;99.90
25512;DHT22;13414;44.534;18.700;2023-08-21T04:02:41;19.80;99.90
25512;DHT22;13414;44.534;18.700;2023-08-21T04:05:09;19.80;99.90
25512;DHT22;13414;44.534;18.700;2023-08-21T04:07:37;19.90;99.90
25512;DHT22;13414;44.534;18.700;2023-08-21T04:10:06;19.80;99.90
25512;DHT22;13414;44.534;18.700;2023-08-21T04:12:33;19.80;99.90
25512;DHT22;13414;44.534;18.700;2023-08-21T04:15:01;19.80;99.90
25512;DHT22;13414;44.534;18.700;2023-08-21T04:17:30;19.90;99.90
25512;DHT22;13414;44.534;18.700;2023-08-21T04:19:58;19.90;99.90
25512;DHT22;13414;44.534;18.700;2023-08-21T04:22:26;19.90;99.90
25512;DHT22;13414;44.534;18.700;2023-08-21T04:24:53;19.90;99.90
25512;DHT22;13414;44.534;18.700;2023-08-21T04:27:21;19.90;99.90
25512;DHT22;13414;44.534;18.700;2023-08-21T04:29:48;20.00;99.90
25512;DHT22;13414;44.534;18.700;2023-08-21T04:32:16;20.00;99.90
25512;DHT22;13414;44.534;18.700;2023-08-21T04:34:45;20.10;99.90
25512;DHT22;13414;44.534;18.700;2023-08-21T04:37:13;20.10;99.90
25512;DHT22;13414;44.534;18.700;2023-08-21T04:39:40;20.10;99.90
25512;DHT22;13414;44.534;18.700;2023-08-21T04:42:08;20.20;99.90
25512;DHT22;13414;44.534;18.700;2023-08-21T04:44:35;20.20;99.90
25512;DHT22;13414;44.534;18.700;2023-08-21T04:47:20;20.30;99.90
25512;DHT22;13414;44.534;18.700;2023-08-21T04:49:52;20.30;99.90
25512;DHT22;13414;44.534;18.700;2023-08-21T04:52:19;20.40;99.90
25512;DHT22;13414;44.534;18.700;2023-08-21T04:54:48;20.50;99.90
25512;DHT22;13414;44.534;18.700;2023-08-21T04:57:16;20.60;99.90
25512;DHT22;13414;44.534;18.700;2023-08-21T04:59:44;20.70;99.90
25512;DHT22;13414;44.534;18.700;2023-08-21T05:02:11;20.80;99.90
25512;DHT22;13414;44.534;18.700;2023-08-21T05:04:39;20.90;99.90
25512;DHT22;13414;44.534;18.700;2023-08-21T05:07:10;21.00;99.90
25512;DHT22;13414;44.534;18.700;2023-08-21T05:09:37;21.10;99.90
25512;DHT22;13414;44.534;18.700;2023-08-21T05:12:07;21.20;99.90
25512;DHT22;13414;44.534;18.700;2023-08-21T05:14:35;21.30;99.90
25512;DHT22;13414;44.534;18.700;2023-08-21T05:17:03;21.40;99.90
25512;DHT22;13414;44.534;18.700;2023-08-21T05:19:30;21.50;99.90
25512;DHT22;13414;44.534;18.700;2023-08-21T05:21:58;21.60;99.90
25512;DHT22;13414;44.534;18.700;2023-08-21T05:24:27;21.70;99.90
25512;DHT22;13414;44.534;18.700;2023-08-21T05:27:01;21.90;99.90
25512;DHT22;13414;44.534;18.700;2023-08-21T05:29:30;21.90;99.90
25512;DHT22;13414;44.534;18.700;2023-08-21T05:31:58;22.00;99.90
25512;DHT22;13414;44.534;18.700;2023-08-21T05:34:26;22.10;99.90
25512;DHT22;13414;44.534;18.700;2023-08-21T05:36:54;22.20;99.90
25512;DHT22;13414;44.534;18.700;2023-08-21T05:39:21;22.50;99.90
25512;DHT22;13414;44.534;18.700;2023-08-21T05:41:51;22.80;99.90
25512;DHT22;13414;44.534;18.700;2023-08-21T05:44:19;23.10;99.90
25512;DHT22;13414;44.534;18.700;2023-08-21T05:46:46;23.30;99.90
25512;DHT22;13414;44.534;18.700;2023-08-21T05:49:15;23.50;99.90
25512;DHT22;13414;44.534;18.700;2023-08-21T05:51:42;23.80;99.90
25512;DHT22;13414;44.534;18.700;2023-08-21T05:54:09;23.90;99.90
25512;DHT22;13414;44.534;18.700;2023-08-21T05:56:39;24.00;99.90
25512;DHT22;13414;44.534;18.700;2023-08-21T05:59:10;24.20;99.90
25512;DHT22;13414;44.534;18.700;2023-08-21T06:01:37;24.40;99.90
25512;DHT22;13414;44.534;18.700;2023-08-21T06:04:05;24.70;99.90
25512;DHT22;13414;44.534;18.700;2023-08-21T06:06:48;24.80;99.90
25512;DHT22;13414;44.534;18.700;2023-08-21T06:09:15;24.70;99.90
25512;DHT22;13414;44.534;18.700;2023-08-21T06:11:43;24.60;99.90
25512;DHT22;13414;44.534;18.700;2023-08-21T06:14:12;24.70;99.90
25512;DHT22;13414;44.534;18.700;2023-08-21T06:16:39;24.80;99.90
25512;DHT22;13414;44.534;18.700;2023-08-21T06:19:07;25.00;99.90
25512;DHT22;13414;44.534;18.700;2023-08-21T06:21:34;25.30;99.90
25512;DHT22;13414;44.534;18.700;2023-08-21T06:24:02;25.40;99.90
25512;DHT22;13414;44.534;18.700;2023-08-21T06:26:31;25.70;99.90
25512;DHT22;13414;44.534;18.700;2023-08-21T06:28:58;25.80;99.90
25512;DHT22;13414;44.534;18.700;2023-08-21T06:31:27;26.00;99.90
25512;DHT22;13414;44.534;18.700;2023-08-21T06:33:54;26.20;99.90
25512;DHT22;13414;44.534;18.700;2023-08-21T06:36:22;26.40;99.90
25512;DHT22;13414;44.534;18.700;2023-08-21T06:38:52;26.50;99.90
25512;DHT22;13414;44.534;18.700;2023-08-21T06:41:24;26.60;99.90
25512;DHT22;13414;44.534;18.700;2023-08-21T06:43:52;26.40;99.90
25512;DHT22;13414;44.534;18.700;2023-08-21T06:46:20;26.50;99.90
25512;DHT22;13414;44.534;18.700;2023-08-21T06:48:49;26.70;99.90
25512;DHT22;13414;44.534;18.700;2023-08-21T06:51:16;26.80;99.90
25512;DHT22;13414;44.534;18.700;2023-08-21T06:53:44;26.90;99.90
25512;DHT22;13414;44.534;18.700;2023-08-21T06:56:12;26.90;99.90
25512;DHT22;13414;44.534;18.700;2023-08-21T06:58:40;27.00;99.90
25512;DHT22;13414;44.534;18.700;2023-08-21T07:01:07;27.10;99.90
25512;DHT22;13414;44.534;18.700;2023-08-21T07:03:34;27.10;99.90
25512;DHT22;13414;44.534;18.700;2023-08-21T07:06:03;27.10;99.90
25512;DHT22;13414;44.534;18.700;2023-08-21T07:08:30;27.20;99.90
25512;DHT22;13414;44.534;18.700;2023-08-21T07:11:02;27.30;99.90
25512;DHT22;13414;44.534;18.700;2023-08-21T07:13:30;27.50;99.90
25512;DHT22;13414;44.534;18.700;2023-08-21T07:15:57;27.60;99.90
25512;DHT22;13414;44.534;18.700;2023-08-21T07:18:28;27.80;99.90
25512;DHT22;13414;44.534;18.700;2023-08-21T07:20:55;28.20;99.90
25512;DHT22;13414;44.534;18.700;2023-08-21T07:23:24;28.30;99.90
25512;DHT22;13414;44.534;18.700;2023-08-21T07:25:51;28.30;99.90
25512;DHT22;13414;44.534;18.700;2023-08-21T07:28:19;28.30;99.90
25512;DHT22;13414;44.534;18.700;2023-08-21T07:30:46;28.30;99.90
25512;DHT22;13414;44.534;18.700;2023-08-21T07:33:13;28.40;99.90
25512;DHT22;13414;44.534;18.700;2023-08-21T07:35:41;28.40;99.90
25512;DHT22;13414;44.534;18.700;2023-08-21T07:38:10;28.30;99.90
25512;DHT22;13414;44.534;18.700;2023-08-21T07:40:41;28.30;99.90
25512;DHT22;13414;44.534;18.700;2023-08-21T07:43:08;28.50;99.90
25512;DHT22;13414;44.534;18.700;2023-08-21T07:45:37;28.60;99.90
25512;DHT22;13414;44.534;18.700;2023-08-21T07:48:05;28.80;99.90
25512;DHT22;13414;44.534;18.700;2023-08-21T07:50:33;28.80;99.90
25512;DHT22;13414;44.534;18.700;2023-08-21T07:53:00;28.90;99.90
25512;DHT22;13414;44.534;18.700;2023-08-21T07:55:27;29.10;99.90
25512;DHT22;13414;44.534;18.700;2023-08-21T07:57:57;29.10;99.90
25512;DHT22;13414;44.534;18.700;2023-08-21T08:00:24;29.20;99.90
25512;DHT22;13414;44.534;18.700;2023-08-21T08:02:51;29.50;99.90
25512;DHT22;13414;44.534;18.700;2023-08-21T08:05:20;29.50;99.90
25512;DHT22;13414;44.534;18.700;2023-08-21T08:07:47;29.50;99.90
25512;DHT22;13414;44.534;18.700;2023-08-21T08:10:14;29.60;99.90
25512;DHT22;13414;44.534;18.700;2023-08-21T08:12:42;29.70;99.90
25512;DHT22;13414;44.534;18.700;2023-08-21T08:15:12;29.70;99.90
25512;DHT22;13414;44.534;18.700;2023-08-21T08:17:39;29.80;99.90
25512;DHT22;13414;44.534;18.700;2023-08-21T08:20:07;30.00;99.90
25512;DHT22;13414;44.534;18.700;2023-08-21T08:22:35;29.80;99.90
25512;DHT22;13414;44.534;18.700;2023-08-21T08:25:02;30.00;99.90
25512;DHT22;13414;44.534;18.700;2023-08-21T08:27:32;30.10;99.90
25512;DHT22;13414;44.534;18.700;2023-08-21T08:29:59;30.30;99.90
25512;DHT22;13414;44.534;18.700;2023-08-21T08:32:29;30.50;99.90
25512;DHT22;13414;44.534;18.700;2023-08-21T08:34:56;30.60;99.90
25512;DHT22;13414;44.534;18.700;2023-08-21T08:37:24;30.50;99.90
25512;DHT22;13414;44.534;18.700;2023-08-21T08:39:53;30.40;99.90
25512;DHT22;13414;44.534;18.700;2023-08-21T08:42:21;30.30;99.90
25512;DHT22;13414;44.534;18.700;2023-08-21T08:44:53;30.30;99.90
25512;DHT22;13414;44.534;18.700;2023-08-21T08:47:22;30.30;99.90
25512;DHT22;13414;44.534;18.700;2023-08-21T08:49:53;30.30;99.90
25512;DHT22;13414;44.534;18.700;2023-08-21T08:52:21;30.30;99.90
25512;DHT22;13414;44.534;18.700;2023-08-21T08:54:50;30.40;99.90
25512;DHT22;13414;44.534;18.700;2023-08-21T08:57:19;30.60;99.90
25512;DHT22;13414;44.534;18.700;2023-08-21T08:59:46;30.80;99.90
25512;DHT22;13414;44.534;18.700;2023-08-21T09:02:14;30.90;99.90
25512;DHT22;13414;44.534;18.700;2023-08-21T09:04:42;31.10;99.90
25512;DHT22;13414;44.534;18.700;2023-08-21T09:07:17;31.20;99.90
25512;DHT22;13414;44.534;18.700;2023-08-21T09:09:47;31.20;99.90
25512;DHT22;13414;44.534;18.700;2023-08-21T09:12:17;31.20;99.90
25512;DHT22;13414;44.534;18.700;2023-08-21T09:14:45;31.20;99.90
25512;DHT22;13414;44.534;18.700;2023-08-21T09:17:13;31.00;99.90
25512;DHT22;13414;44.534;18.700;2023-08-21T09:19:41;31.00;99.90
25512;DHT22;13414;44.534;18.700;2023-08-21T09:22:10;30.80;99.90
25512;DHT22;13414;44.534;18.700;2023-08-21T09:24:41;30.80;99.90
25512;DHT22;13414;44.534;18.700;2023-08-21T09:27:26;31.00;99.90
25512;DHT22;13414;44.534;18.700;2023-08-21T09:29:55;31.00;99.90
25512;DHT22;13414;44.534;18.700;2023-08-21T09:32:22;31.00;99.90
25512;DHT22;13414;44.534;18.700;2023-08-21T09:34:50;31.10;99.90
25512;DHT22;13414;44.534;18.700;2023-08-21T09:37:18;31.10;99.90
25512;DHT22;13414;44.534;18.700;2023-08-21T09:39:46;31.10;99.90
25512;DHT22;13414;44.534;18.700;2023-08-21T09:42:14;31.20;99.90
25512;DHT22;13414;44.534;18.700;2023-08-21T09:44:42;31.30;99.90
25512;DHT22;13414;44.534;18.700;2023-08-21T09:47:10;31.30;99.90
25512;DHT22;13414;44.534;18.700;2023-08-21T09:49:39;31.40;99.90
25512;DHT22;13414;44.534;18.700;2023-08-21T09:52:08;31.60;99.90
25512;DHT22;13414;44.534;18.700;2023-08-21T09:54:38;31.60;99.90
25512;DHT22;13414;44.534;18.700;2023-08-21T09:57:07;31.80;99.90
25512;DHT22;13414;44.534;18.700;2023-08-21T09:59:38;31.80;99.90
25512;DHT22;13414;44.534;18.700;2023-08-21T10:02:09;31.90;99.90
25512;DHT22;13414;44.534;18.700;2023-08-21T10:04:40;31.90;99.90
25512;DHT22;13414;44.534;18.700;2023-08-21T10:07:10;31.90;99.90
25512;DHT22;13414;44.534;18.700;2023-08-21T10:09:39;32.10;99.90
25512;DHT22;13414;44.534;18.700;2023-08-21T10:12:09;32.40;99.90
25512;DHT22;13414;44.534;18.700;2023-08-21T10:14:37;32.50;99.90
25512;DHT22;13414;44.534;18.700;2023-08-21T10:17:05;32.60;99.90
25512;DHT22;13414;44.534;18.700;2023-08-21T10:19:34;32.70;99.90
25512;DHT22;13414;44.534;18.700;2023-08-21T10:22:02;32.70;99.90
25512;DHT22;13414;44.534;18.700;2023-08-21T10:24:34;32.70;99.90
25512;DHT22;13414;44.534;18.700;2023-08-21T10:27:02;32.70;99.90
25512;DHT22;13414;44.534;18.700;2023-08-21T10:29:32;32.80;99.90
25512;DHT22;13414;44.534;18.700;2023-08-21T10:32:00;32.80;99.90
25512;DHT22;13414;44.534;18.700;2023-08-21T10:34:33;33.00;99.90
25512;DHT22;13414;44.534;18.700;2023-08-21T10:37:09;33.10;99.90
25512;DHT22;13414;44.534;18.700;2023-08-21T10:39:39;33.40;99.90
25512;DHT22;13414;44.534;18.700;2023-08-21T10:42:09;33.40;99.90
25512;DHT22;13414;44.534;18.700;2023-08-21T10:44:52;33.50;99.90
25512;DHT22;13414;44.534;18.700;2023-08-21T10:47:22;33.50;99.90
25512;DHT22;13414;44.534;18.700;2023-08-21T10:50:02;33.70;99.90
25512;DHT22;13414;44.534;18.700;2023-08-21T10:52:31;34.00;99.90
25512;DHT22;13414;44.534;18.700;2023-08-21T10:55:05;34.20;99.90
25512;DHT22;13414;44.534;18.700;2023-08-21T10:57:33;34.30;99.90
25512;DHT22;13414;44.534;18.700;2023-08-21T11:00:04;34.20;99.90
25512;DHT22;13414;44.534;18.700;2023-08-21T11:02:33;34.10;99.90
25512;DHT22;13414;44.534;18.700;2023-08-21T11:05:01;33.80;99.90
25512;DHT22;13414;44.534;18.700;2023-08-21T11:07:29;33.60;99.90
25512;DHT22;13414;44.534;18.700;2023-08-21T11:09:57;33.40;99.90
25512;DHT22;13414;44.534;18.700;2023-08-21T11:12:25;33.20;99.90
25512;DHT22;13414;44.534;18.700;2023-08-21T11:14:53;32.90;99.90
25512;DHT22;13414;44.534;18.700;2023-08-21T11:17:22;32.70;99.90
25512;DHT22;13414;44.534;18.700;2023-08-21T11:19:50;32.50;99.90
25512;DHT22;13414;44.534;18.700;2023-08-21T11:22:17;32.50;99.90
25512;DHT22;13414;44.534;18.700;2023-08-21T11:24:46;32.30;99.90
25512;DHT22;13414;44.534;18.700;2023-08-21T11:27:16;32.20;99.90
25512;DHT22;13414;44.534;18.700;2023-08-21T11:29:44;32.20;99.90
25512;DHT22;13414;44.534;18.700;2023-08-21T11:32:13;32.40;99.90
25512;DHT22;13414;44.534;18.700;2023-08-21T11:34:47;32.50;99.90
25512;DHT22;13414;44.534;18.700;2023-08-21T11:37:29;32.70;99.90
25512;DHT22;13414;44.534;18.700;2023-08-21T11:40:07;32.90;99.90
25512;DHT22;13414;44.534;18.700;2023-08-21T11:42:35;33.20;99.90
25512;DHT22;13414;44.534;18.700;2023-08-21T11:45:03;33.40;99.90
25512;DHT22;13414;44.534;18.700;2023-08-21T11:47:34;33.40;99.90
25512;DHT22;13414;44.534;18.700;2023-08-21T11:50:07;33.50;99.90
25512;DHT22;13414;44.534;18.700;2023-08-21T11:52:37;33.50;99.90
25512;DHT22;13414;44.534;18.700;2023-08-21T11:55:08;33.50;99.90
25512;DHT22;13414;44.534;18.700;2023-08-21T11:57:46;33.60;99.90
25512;DHT22;13414;44.534;18.700;2023-08-21T12:00:15;33.70;99.90
25512;DHT22;13414;44.534;18.700;2023-08-21T12:02:53;33.60;99.90
25512;DHT22;13414;44.534;18.700;2023-08-21T12:05:25;33.70;99.90
25512;DHT22;13414;44.534;18.700;2023-08-21T12:07:53;33.70;99.90
25512;DHT22;13414;44.534;18.700;2023-08-21T12:10:25;33.80;99.90
25512;DHT22;13414;44.534;18.700;2023-08-21T12:12:53;33.80;99.90
25512;DHT22;13414;44.534;18.700;2023-08-21T12:15:21;33.60;99.90
25512;DHT22;13414;44.534;18.700;2023-08-21T12:17:48;33.50;99.90
25512;DHT22;13414;44.534;18.700;2023-08-21T12:20:16;33.40;99.90
25512;DHT22;13414;44.534;18.700;2023-08-21T12:22:44;33.40;99.90
25512;DHT22;13414;44.534;18.700;2023-08-21T12:25:13;33.20;99.90
25512;DHT22;13414;44.534;18.700;2023-08-21T12:27:42;33.20;99.90
25512;DHT22;13414;44.534;18.700;2023-08-21T12:30:10;33.00;99.90
25512;DHT22;13414;44.534;18.700;2023-08-21T12:32:37;32.90;99.90
25512;DHT22;13414;44.534;18.700;2023-08-21T12:35:07;32.90;99.90
25512;DHT22;13414;44.534;18.700;2023-08-21T12:37:37;33.00;99.90
25512;DHT22;13414;44.534;18.700;2023-08-21T12:40:09;33.20;99.90
25512;DHT22;13414;44.534;18.700;2023-08-21T12:42:37;33.20;99.90
25512;DHT22;13414;44.534;18.700;2023-08-21T12:45:06;33.20;99.90
25512;DHT22;13414;44.534;18.700;2023-08-21T12:47:34;33.40;99.90
25512;DHT22;13414;44.534;18.700;2023-08-21T12:50:01;33.80;99.90
25512;DHT22;13414;44.534;18.700;2023-08-21T12:52:29;33.90;99.90
25512;DHT22;13414;44.534;18.700;2023-08-21T12:54:56;34.00;99.90
25512;DHT22;13414;44.534;18.700;2023-08-21T12:57:29;34.20;99.90
25512;DHT22;13414;44.534;18.700;2023-08-21T12:59:56;34.30;99.90
25512;DHT22;13414;44.534;18.700;2023-08-21T13:02:33;34.50;99.90
25512;DHT22;13414;44.534;18.700;2023-08-21T13:05:12;34.40;99.90
25512;DHT22;13414;44.534;18.700;2023-08-21T13:07:41;34.00;99.90
25512;DHT22;13414;44.534;18.700;2023-08-21T13:10:09;33.70;99.90
25512;DHT22;13414;44.534;18.700;2023-08-21T13:12:38;33.20;99.90
25512;DHT22;13414;44.534;18.700;2023-08-21T13:15:06;32.80;99.90
25512;DHT22;13414;44.534;18.700;2023-08-21T13:17:34;32.60;99.90
25512;DHT22;13414;44.534;18.700;2023-08-21T13:20:07;32.30;99.90
25512;DHT22;13414;44.534;18.700;2023-08-21T13:22:49;32.30;99.90
25512;DHT22;13414;44.534;18.700;2023-08-21T13:25:18;32.30;99.90
25512;DHT22;13414;44.534;18.700;2023-08-21T13:27:48;32.30;99.90
25512;DHT22;13414;44.534;18.700;2023-08-21T13:30:16;32.40;99.90
25512;DHT22;13414;44.534;18.700;2023-08-21T13:32:43;32.40;99.90
25512;DHT22;13414;44.534;18.700;2023-08-21T13:35:11;32.50;99.90
25512;DHT22;13414;44.534;18.700;2023-08-21T13:37:41;32.50;99.90
25512;DHT22;13414;44.534;18.700;2023-08-21T13:40:08;32.80;99.90
25512;DHT22;13414;44.534;18.700;2023-08-21T13:42:40;33.00;99.90
25512;DHT22;13414;44.534;18.700;2023-08-21T13:45:11;33.20;99.90
25512;DHT22;13414;44.534;18.700;2023-08-21T13:47:38;33.40;99.90
25512;DHT22;13414;44.534;18.700;2023-08-21T13:50:07;33.40;99.90
25512;DHT22;13414;44.534;18.700;2023-08-21T13:52:34;33.40;99.90
25512;DHT22;13414;44.534;18.700;2023-08-21T13:55:02;33.70;99.90
25512;DHT22;13414;44.534;18.700;2023-08-21T13:57:30;33.40;99.90
25512;DHT22;13414;44.534;18.700;2023-08-21T13:59:58;33.20;99.90
25512;DHT22;13414;44.534;18.700;2023-08-21T14:02:27;33.00;99.90
25512;DHT22;13414;44.534;18.700;2023-08-21T14:05:02;33.00;99.90
25512;DHT22;13414;44.534;18.700;2023-08-21T14:07:32;32.90;99.90
25512;DHT22;13414;44.534;18.700;2023-08-21T14:10:00;32.60;99.90
25512;DHT22;13414;44.534;18.700;2023-08-21T14:12:29;32.70;99.90
25512;DHT22;13414;44.534;18.700;2023-08-21T14:14:57;32.70;99.90
25512;DHT22;13414;44.534;18.700;2023-08-21T14:17:27;32.90;99.90
25512;DHT22;13414;44.534;18.700;2023-08-21T14:19:54;32.90;99.90
25512;DHT22;13414;44.534;18.700;2023-08-21T14:22:22;33.00;99.90
25512;DHT22;13414;44.534;18.700;2023-08-21T14:24:50;32.90;99.90
25512;DHT22;13414;44.534;18.700;2023-08-21T14:27:19;32.90;99.90
25512;DHT22;13414;44.534;18.700;2023-08-21T14:29:46;32.90;99.90
25512;DHT22;13414;44.534;18.700;2023-08-21T14:32:14;32.80;99.90
25512;DHT22;13414;44.534;18.700;2023-08-21T14:34:43;32.70;99.90
25512;DHT22;13414;44.534;18.700;2023-08-21T14:37:11;32.60;99.90
25512;DHT22;13414;44.534;18.700;2023-08-21T14:39:41;32.50;99.90
25512;DHT22;13414;44.534;18.700;2023-08-21T14:42:09;32.40;99.90
25512;DHT22;13414;44.534;18.700;2023-08-21T14:44:36;32.30;99.90
25512;DHT22;13414;44.534;18.700;2023-08-21T14:47:06;32.30;99.90
25512;DHT22;13414;44.534;18.700;2023-08-21T14:49:34;32.30;99.90
25512;DHT22;13414;44.534;18.700;2023-08-21T14:52:03;32.40;99.90
25512;DHT22;13414;44.534;18.700;2023-08-21T14:54:32;32.40;99.90
25512;DHT22;13414;44.534;18.700;2023-08-21T14:57:00;32.40;99.90
25512;DHT22;13414;44.534;18.700;2023-08-21T14:59:27;32.50;99.90
25512;DHT22;13414;44.534;18.700;2023-08-21T15:01:55;32.50;99.90
25512;DHT22;13414;44.534;18.700;2023-08-21T15:04:22;32.40;99.90
25512;DHT22;13414;44.534;18.700;2023-08-21T15:06:51;32.40;99.90
25512;DHT22;13414;44.534;18.700;2023-08-21T15:09:22;32.40;99.90
25512;DHT22;13414;44.534;18.700;2023-08-21T15:11:53;32.30;99.90
25512;DHT22;13414;44.534;18.700;2023-08-21T15:14:20;32.20;99.90
25512;DHT22;13414;44.534;18.700;2023-08-21T15:16:47;32.20;99.90
25512;DHT22;13414;44.534;18.700;2023-08-21T15:19:15;32.10;99.90
25512;DHT22;13414;44.534;18.700;2023-08-21T15:21:42;32.30;99.90
25512;DHT22;13414;44.534;18.700;2023-08-21T15:24:10;32.20;99.90
25512;DHT22;13414;44.534;18.700;2023-08-21T15:26:39;32.10;99.90